sensor_id;sensor_type;location;lat;lon;timestamp;P1;durP1;ratioP1;P2;durP2;ratioP2
45420;SDS011;55462;47.042;8.292;2022-10-16T00:00:32;3.53;;;2.00;;
45420;SDS011;55462;47.042;8.292;2022-10-16T00:02:59;3.13;;;2.10;;
45420;SDS011;55462;47.042;8.292;2022-10-16T00:05:24;5.43;;;2.20;;
45420;SDS011;55462;47.042;8.292;2022-10-16T00:07:50;5.15;;;2.30;;
45420;SDS011;55462;47.042;8.292;2022-10-16T00:10:15;7.00;;;2.15;;
45420;SDS011;55462;47.042;8.292;2022-10-16T00:12:40;7.10;;;2.10;;
45420;SDS011;55462;47.042;8.292;2022-10-16T00:15:06;4.78;;;2.40;;
45420;SDS011;55462;47.042;8.292;2022-10-16T00:17:32;5.88;;;2.05;;
45420;SDS011;55462;47.042;8.292;2022-10-16T00:19:57;5.65;;;2.70;;
45420;SDS011;55462;47.042;8.292;2022-10-16T00:22:22;7.47;;;2.30;;
45420;SDS011;55462;47.042;8.292;2022-10-16T00:24:48;5.30;;;1.80;;
45420;SDS011;55462;47.042;8.292;2022-10-16T00:27:13;1.70;;;1.25;;
45420;SDS011;55462;47.042;8.292;2022-10-16T00:29:39;4.15;;;1.50;;
45420;SDS011;55462;47.042;8.292;2022-10-16T00:32:04;5.00;;;1.40;;
45420;SDS011;55462;47.042;8.292;2022-10-16T00:34:29;1.75;;;1.60;;
45420;SDS011;55462;47.042;8.292;2022-10-16T00:36:55;4.32;;;1.83;;
45420;SDS011;55462;47.042;8.292;2022-10-16T00:39:20;5.70;;;1.33;;
45420;SDS011;55462;47.042;8.292;2022-10-16T00:41:46;3.03;;;1.35;;
45420;SDS011;55462;47.042;8.292;2022-10-16T00:47:09;5.82;;;1.35;;
45420;SDS011;55462;47.042;8.292;2022-10-16T00:49:35;3.83;;;1.70;;
45420;SDS011;55462;47.042;8.292;2022-10-16T00:52:01;3.35;;;1.70;;
45420;SDS011;55462;47.042;8.292;2022-10-16T00:54:28;4.28;;;1.45;;
45420;SDS011;55462;47.042;8.292;2022-10-16T00:56:54;5.28;;;1.85;;
45420;SDS011;55462;47.042;8.292;2022-10-16T00:59:23;5.22;;;1.98;;
45420;SDS011;55462;47.042;8.292;2022-10-16T01:01:50;2.45;;;1.15;;
45420;SDS011;55462;47.042;8.292;2022-10-16T01:04:16;4.95;;;1.40;;
45420;SDS011;55462;47.042;8.292;2022-10-16T01:06:43;4.00;;;1.40;;
45420;SDS011;55462;47.042;8.292;2022-10-16T01:09:21;3.92;;;1.58;;
45420;SDS011;55462;47.042;8.292;2022-10-16T01:12:01;4.95;;;1.70;;
45420;SDS011;55462;47.042;8.292;2022-10-16T01:17:45;4.78;;;1.77;;
45420;SDS011;55462;47.042;8.292;2022-10-16T01:23:02;1.50;;;1.40;;
45420;SDS011;55462;47.042;8.292;2022-10-16T01:28:39;5.63;;;1.52;;
45420;SDS011;55462;47.042;8.292;2022-10-16T01:31:07;2.50;;;1.55;;
45420;SDS011;55462;47.042;8.292;2022-10-16T01:33:40;4.38;;;1.52;;
45420;SDS011;55462;47.042;8.292;2022-10-16T01:36:10;5.63;;;1.75;;
45420;SDS011;55462;47.042;8.292;2022-10-16T01:38:39;5.95;;;1.60;;
45420;SDS011;55462;47.042;8.292;2022-10-16T01:41:19;4.45;;;1.75;;
45420;SDS011;55462;47.042;8.292;2022-10-16T01:43:51;1.55;;;1.42;;
45420;SDS011;55462;47.042;8.292;2022-10-16T01:46:21;3.70;;;1.33;;
45420;SDS011;55462;47.042;8.292;2022-10-16T01:48:48;6.22;;;1.63;;
45420;SDS011;55462;47.042;8.292;2022-10-16T01:51:14;3.33;;;1.73;;
45420;SDS011;55462;47.042;8.292;2022-10-16T01:53:42;3.53;;;1.48;;
45420;SDS011;55462;47.042;8.292;2022-10-16T01:56:11;6.38;;;1.65;;
45420;SDS011;55462;47.042;8.292;2022-10-16T01:58:40;3.30;;;1.48;;
45420;SDS011;55462;47.042;8.292;2022-10-16T02:01:10;4.85;;;1.50;;
45420;SDS011;55462;47.042;8.292;2022-10-16T02:03:37;1.92;;;1.42;;
45420;SDS011;55462;47.042;8.292;2022-10-16T02:06:02;4.47;;;1.77;;
45420;SDS011;55462;47.042;8.292;2022-10-16T02:08:28;6.13;;;1.70;;
45420;SDS011;55462;47.042;8.292;2022-10-16T02:10:55;3.80;;;1.60;;
45420;SDS011;55462;47.042;8.292;2022-10-16T02:15:57;9.07;;;1.73;;
45420;SDS011;55462;47.042;8.292;2022-10-16T02:18:23;6.00;;;1.70;;
45420;SDS011;55462;47.042;8.292;2022-10-16T02:20:55;5.80;;;1.60;;
45420;SDS011;55462;47.042;8.292;2022-10-16T02:23:30;3.65;;;1.45;;
45420;SDS011;55462;47.042;8.292;2022-10-16T02:26:04;4.63;;;1.80;;
45420;SDS011;55462;47.042;8.292;2022-10-16T02:29:07;2.88;;;1.58;;
45420;SDS011;55462;47.042;8.292;2022-10-16T02:31:26;2.88;;;1.75;;
45420;SDS011;55462;47.042;8.292;2022-10-16T02:33:54;7.70;;;1.48;;
45420;SDS011;55462;47.042;8.292;2022-10-16T02:36:20;2.88;;;1.52;;
45420;SDS011;55462;47.042;8.292;2022-10-16T02:38:46;4.38;;;1.60;;
45420;SDS011;55462;47.042;8.292;2022-10-16T02:41:11;5.10;;;1.65;;
45420;SDS011;55462;47.042;8.292;2022-10-16T02:43:37;2.65;;;1.55;;
45420;SDS011;55462;47.042;8.292;2022-10-16T02:46:02;10.60;;;1.60;;
45420;SDS011;55462;47.042;8.292;2022-10-16T02:48:27;2.20;;;1.50;;
45420;SDS011;55462;47.042;8.292;2022-10-16T02:50:53;2.72;;;1.42;;
45420;SDS011;55462;47.042;8.292;2022-10-16T02:53:18;2.58;;;1.60;;
45420;SDS011;55462;47.042;8.292;2022-10-16T02:55:43;1.75;;;1.40;;
45420;SDS011;55462;47.042;8.292;2022-10-16T02:58:09;3.78;;;1.33;;
45420;SDS011;55462;47.042;8.292;2022-10-16T03:00:34;1.90;;;1.58;;
45420;SDS011;55462;47.042;8.292;2022-10-16T03:02:59;3.42;;;1.45;;
45420;SDS011;55462;47.042;8.292;2022-10-16T03:05:24;4.20;;;1.70;;
45420;SDS011;55462;47.042;8.292;2022-10-16T03:07:50;2.92;;;1.45;;
45420;SDS011;55462;47.042;8.292;2022-10-16T03:10:15;1.55;;;1.45;;
45420;SDS011;55462;47.042;8.292;2022-10-16T03:12:41;3.47;;;1.60;;
45420;SDS011;55462;47.042;8.292;2022-10-16T03:15:06;4.53;;;1.73;;
45420;SDS011;55462;47.042;8.292;2022-10-16T03:17:32;1.85;;;1.70;;
45420;SDS011;55462;47.042;8.292;2022-10-16T03:19:57;3.00;;;1.50;;
45420;SDS011;55462;47.042;8.292;2022-10-16T03:22:23;3.63;;;1.10;;
45420;SDS011;55462;47.042;8.292;2022-10-16T03:24:48;5.60;;;1.45;;
45420;SDS011;55462;47.042;8.292;2022-10-16T03:27:13;2.63;;;1.45;;
45420;SDS011;55462;47.042;8.292;2022-10-16T03:29:39;2.63;;;1.30;;
45420;SDS011;55462;47.042;8.292;2022-10-16T03:32:04;2.05;;;1.17;;
45420;SDS011;55462;47.042;8.292;2022-10-16T03:34:29;2.38;;;1.50;;
45420;SDS011;55462;47.042;8.292;2022-10-16T03:36:54;5.07;;;1.52;;
45420;SDS011;55462;47.042;8.292;2022-10-16T03:39:20;7.65;;;1.38;;
45420;SDS011;55462;47.042;8.292;2022-10-16T03:41:45;2.13;;;1.23;;
45420;SDS011;55462;47.042;8.292;2022-10-16T03:44:13;4.88;;;1.65;;
45420;SDS011;55462;47.042;8.292;2022-10-16T03:46:39;4.43;;;1.83;;
45420;SDS011;55462;47.042;8.292;2022-10-16T03:49:04;1.60;;;1.02;;
45420;SDS011;55462;47.042;8.292;2022-10-16T03:51:30;2.17;;;1.50;;
45420;SDS011;55462;47.042;8.292;2022-10-16T03:53:55;4.70;;;1.13;;
45420;SDS011;55462;47.042;8.292;2022-10-16T03:56:20;2.72;;;1.10;;
45420;SDS011;55462;47.042;8.292;2022-10-16T03:58:46;1.17;;;1.15;;
45420;SDS011;55462;47.042;8.292;2022-10-16T04:01:11;4.10;;;1.40;;
45420;SDS011;55462;47.042;8.292;2022-10-16T04:03:36;5.43;;;1.27;;
45420;SDS011;55462;47.042;8.292;2022-10-16T04:06:02;5.22;;;1.90;;
45420;SDS011;55462;47.042;8.292;2022-10-16T04:08:27;9.80;;;1.70;;
45420;SDS011;55462;47.042;8.292;2022-10-16T04:10:52;1.27;;;1.13;;
45420;SDS011;55462;47.042;8.292;2022-10-16T04:13:18;1.30;;;1.20;;
45420;SDS011;55462;47.042;8.292;2022-10-16T04:15:44;4.72;;;1.58;;
45420;SDS011;55462;47.042;8.292;2022-10-16T04:18:09;2.28;;;1.40;;
45420;SDS011;55462;47.042;8.292;2022-10-16T04:20:35;5.88;;;1.13;;
45420;SDS011;55462;47.042;8.292;2022-10-16T04:23:00;6.82;;;1.45;;
45420;SDS011;55462;47.042;8.292;2022-10-16T04:25:25;2.17;;;1.20;;
45420;SDS011;55462;47.042;8.292;2022-10-16T04:27:52;2.13;;;1.35;;
45420;SDS011;55462;47.042;8.292;2022-10-16T04:30:18;4.22;;;1.27;;
45420;SDS011;55462;47.042;8.292;2022-10-16T04:32:47;3.85;;;1.55;;
45420;SDS011;55462;47.042;8.292;2022-10-16T04:35:13;5.30;;;1.50;;
45420;SDS011;55462;47.042;8.292;2022-10-16T04:37:39;3.35;;;1.15;;
45420;SDS011;55462;47.042;8.292;2022-10-16T04:40:04;3.75;;;1.42;;
45420;SDS011;55462;47.042;8.292;2022-10-16T04:42:30;2.95;;;1.48;;
45420;SDS011;55462;47.042;8.292;2022-10-16T04:44:55;4.80;;;1.27;;
45420;SDS011;55462;47.042;8.292;2022-10-16T04:47:21;9.40;;;1.20;;
45420;SDS011;55462;47.042;8.292;2022-10-16T04:49:46;4.07;;;1.30;;
45420;SDS011;55462;47.042;8.292;2022-10-16T04:52:11;2.17;;;1.05;;
45420;SDS011;55462;47.042;8.292;2022-10-16T04:54:37;4.93;;;1.20;;
45420;SDS011;55462;47.042;8.292;2022-10-16T04:57:02;4.40;;;1.30;;
45420;SDS011;55462;47.042;8.292;2022-10-16T04:59:27;2.25;;;1.27;;
45420;SDS011;55462;47.042;8.292;2022-10-16T05:01:53;2.63;;;1.10;;
45420;SDS011;55462;47.042;8.292;2022-10-16T05:04:18;1.75;;;1.30;;
45420;SDS011;55462;47.042;8.292;2022-10-16T05:06:43;1.63;;;1.20;;
45420;SDS011;55462;47.042;8.292;2022-10-16T05:09:09;0.80;;;0.80;;
45420;SDS011;55462;47.042;8.292;2022-10-16T05:11:34;1.65;;;1.05;;
45420;SDS011;55462;47.042;8.292;2022-10-16T05:14:00;4.13;;;1.20;;
45420;SDS011;55462;47.042;8.292;2022-10-16T05:16:25;3.03;;;1.10;;
45420;SDS011;55462;47.042;8.292;2022-10-16T05:18:51;7.85;;;1.60;;
45420;SDS011;55462;47.042;8.292;2022-10-16T05:21:16;2.85;;;1.60;;
45420;SDS011;55462;47.042;8.292;2022-10-16T05:23:42;1.00;;;1.00;;
45420;SDS011;55462;47.042;8.292;2022-10-16T05:26:07;3.50;;;1.20;;
45420;SDS011;55462;47.042;8.292;2022-10-16T05:28:32;1.58;;;1.20;;
45420;SDS011;55462;47.042;8.292;2022-10-16T05:30:58;1.35;;;1.25;;
45420;SDS011;55462;47.042;8.292;2022-10-16T05:33:25;4.68;;;1.20;;
45420;SDS011;55462;47.042;8.292;2022-10-16T05:35:50;2.67;;;1.00;;
45420;SDS011;55462;47.042;8.292;2022-10-16T05:38:16;6.90;;;1.30;;
45420;SDS011;55462;47.042;8.292;2022-10-16T05:40:42;3.55;;;1.50;;
45420;SDS011;55462;47.042;8.292;2022-10-16T05:43:08;2.97;;;1.33;;
45420;SDS011;55462;47.042;8.292;2022-10-16T05:45:33;6.78;;;1.60;;
45420;SDS011;55462;47.042;8.292;2022-10-16T05:47:59;2.53;;;1.15;;
45420;SDS011;55462;47.042;8.292;2022-10-16T05:50:25;6.25;;;1.13;;
45420;SDS011;55462;47.042;8.292;2022-10-16T05:52:50;1.52;;;1.25;;
45420;SDS011;55462;47.042;8.292;2022-10-16T05:55:16;5.32;;;1.50;;
45420;SDS011;55462;47.042;8.292;2022-10-16T05:57:41;4.25;;;1.25;;
45420;SDS011;55462;47.042;8.292;2022-10-16T06:00:06;4.57;;;1.30;;
45420;SDS011;55462;47.042;8.292;2022-10-16T06:02:32;5.15;;;1.00;;
45420;SDS011;55462;47.042;8.292;2022-10-16T06:04:57;2.60;;;1.45;;
45420;SDS011;55462;47.042;8.292;2022-10-16T06:07:23;1.10;;;1.10;;
45420;SDS011;55462;47.042;8.292;2022-10-16T06:09:52;3.15;;;1.23;;
45420;SDS011;55462;47.042;8.292;2022-10-16T06:12:17;4.53;;;1.27;;
45420;SDS011;55462;47.042;8.292;2022-10-16T06:14:44;1.77;;;1.08;;
45420;SDS011;55462;47.042;8.292;2022-10-16T06:17:11;3.60;;;1.42;;
45420;SDS011;55462;47.042;8.292;2022-10-16T06:19:37;6.68;;;1.63;;
45420;SDS011;55462;47.042;8.292;2022-10-16T06:22:02;0.57;;;0.57;;
45420;SDS011;55462;47.042;8.292;2022-10-16T06:24:29;4.25;;;1.20;;
45420;SDS011;55462;47.042;8.292;2022-10-16T06:26:54;1.10;;;1.00;;
45420;SDS011;55462;47.042;8.292;2022-10-16T06:29:19;3.55;;;1.40;;
45420;SDS011;55462;47.042;8.292;2022-10-16T06:31:45;1.30;;;1.20;;
45420;SDS011;55462;47.042;8.292;2022-10-16T06:34:10;1.00;;;0.90;;
45420;SDS011;55462;47.042;8.292;2022-10-16T06:36:36;1.48;;;0.68;;
45420;SDS011;55462;47.042;8.292;2022-10-16T06:39:03;3.38;;;1.33;;
45420;SDS011;55462;47.042;8.292;2022-10-16T06:41:29;1.25;;;1.00;;
45420;SDS011;55462;47.042;8.292;2022-10-16T06:43:55;3.47;;;1.10;;
45420;SDS011;55462;47.042;8.292;2022-10-16T06:46:21;2.45;;;0.93;;
45420;SDS011;55462;47.042;8.292;2022-10-16T06:48:47;4.18;;;1.05;;
45420;SDS011;55462;47.042;8.292;2022-10-16T06:51:14;5.30;;;1.10;;
45420;SDS011;55462;47.042;8.292;2022-10-16T06:53:45;7.97;;;1.27;;
45420;SDS011;55462;47.042;8.292;2022-10-16T06:56:15;7.07;;;1.20;;
45420;SDS011;55462;47.042;8.292;2022-10-16T06:58:43;2.78;;;1.10;;
45420;SDS011;55462;47.042;8.292;2022-10-16T07:01:09;1.15;;;1.13;;
45420;SDS011;55462;47.042;8.292;2022-10-16T07:03:39;2.00;;;1.20;;
45420;SDS011;55462;47.042;8.292;2022-10-16T07:06:05;1.00;;;1.00;;
45420;SDS011;55462;47.042;8.292;2022-10-16T07:08:33;3.03;;;1.40;;
45420;SDS011;55462;47.042;8.292;2022-10-16T07:11:02;1.25;;;1.15;;
45420;SDS011;55462;47.042;8.292;2022-10-16T07:13:38;5.25;;;1.08;;
45420;SDS011;55462;47.042;8.292;2022-10-16T07:16:05;6.03;;;1.10;;
45420;SDS011;55462;47.042;8.292;2022-10-16T07:18:41;2.25;;;1.10;;
45420;SDS011;55462;47.042;8.292;2022-10-16T07:23:35;4.63;;;1.17;;
45420;SDS011;55462;47.042;8.292;2022-10-16T07:26:00;3.20;;;1.27;;
45420;SDS011;55462;47.042;8.292;2022-10-16T07:28:26;4.10;;;1.27;;
45420;SDS011;55462;47.042;8.292;2022-10-16T07:30:52;4.22;;;1.52;;
45420;SDS011;55462;47.042;8.292;2022-10-16T07:33:17;2.30;;;1.27;;
45420;SDS011;55462;47.042;8.292;2022-10-16T07:35:52;4.30;;;1.52;;
45420;SDS011;55462;47.042;8.292;2022-10-16T07:38:19;2.47;;;1.20;;
45420;SDS011;55462;47.042;8.292;2022-10-16T07:40:45;3.75;;;1.58;;
45420;SDS011;55462;47.042;8.292;2022-10-16T07:43:10;3.05;;;1.48;;
45420;SDS011;55462;47.042;8.292;2022-10-16T07:45:36;2.58;;;1.75;;
45420;SDS011;55462;47.042;8.292;2022-10-16T07:48:02;4.72;;;1.80;;
45420;SDS011;55462;47.042;8.292;2022-10-16T07:50:27;1.58;;;1.50;;
45420;SDS011;55462;47.042;8.292;2022-10-16T07:52:52;1.90;;;1.60;;
45420;SDS011;55462;47.042;8.292;2022-10-16T07:55:18;4.93;;;1.40;;
45420;SDS011;55462;47.042;8.292;2022-10-16T07:57:43;2.55;;;1.60;;
45420;SDS011;55462;47.042;8.292;2022-10-16T08:00:08;3.03;;;1.60;;
45420;SDS011;55462;47.042;8.292;2022-10-16T08:02:38;1.30;;;1.30;;
45420;SDS011;55462;47.042;8.292;2022-10-16T08:05:06;3.78;;;1.20;;
45420;SDS011;55462;47.042;8.292;2022-10-16T08:07:32;2.25;;;1.35;;
45420;SDS011;55462;47.042;8.292;2022-10-16T08:09:57;4.95;;;1.58;;
45420;SDS011;55462;47.042;8.292;2022-10-16T08:12:24;1.70;;;1.60;;
45420;SDS011;55462;47.042;8.292;2022-10-16T08:14:50;9.93;;;2.10;;
45420;SDS011;55462;47.042;8.292;2022-10-16T08:17:15;3.05;;;1.42;;
45420;SDS011;55462;47.042;8.292;2022-10-16T08:19:43;4.55;;;1.58;;
45420;SDS011;55462;47.042;8.292;2022-10-16T08:22:09;2.53;;;1.50;;
45420;SDS011;55462;47.042;8.292;2022-10-16T08:24:35;4.07;;;1.48;;
45420;SDS011;55462;47.042;8.292;2022-10-16T08:27:01;5.82;;;1.42;;
45420;SDS011;55462;47.042;8.292;2022-10-16T08:29:27;3.40;;;1.80;;
45420;SDS011;55462;47.042;8.292;2022-10-16T08:31:52;1.63;;;1.52;;
45420;SDS011;55462;47.042;8.292;2022-10-16T08:34:18;2.40;;;1.60;;
45420;SDS011;55462;47.042;8.292;2022-10-16T08:36:43;7.85;;;1.75;;
45420;SDS011;55462;47.042;8.292;2022-10-16T08:39:08;4.70;;;2.03;;
45420;SDS011;55462;47.042;8.292;2022-10-16T08:44:30;4.28;;;2.03;;
45420;SDS011;55462;47.042;8.292;2022-10-16T08:47:17;3.78;;;1.70;;
45420;SDS011;55462;47.042;8.292;2022-10-16T08:49:50;2.45;;;1.27;;
45420;SDS011;55462;47.042;8.292;2022-10-16T08:52:29;1.45;;;1.27;;
45420;SDS011;55462;47.042;8.292;2022-10-16T08:54:56;2.28;;;1.52;;
45420;SDS011;55462;47.042;8.292;2022-10-16T08:57:22;2.95;;;1.50;;
45420;SDS011;55462;47.042;8.292;2022-10-16T08:59:48;1.73;;;1.60;;
45420;SDS011;55462;47.042;8.292;2022-10-16T09:02:24;6.03;;;1.70;;
45420;SDS011;55462;47.042;8.292;2022-10-16T09:10:36;1.90;;;1.80;;
45420;SDS011;55462;47.042;8.292;2022-10-16T09:18:43;1.80;;;1.70;;
45420;SDS011;55462;47.042;8.292;2022-10-16T09:21:15;2.20;;;1.63;;
45420;SDS011;55462;47.042;8.292;2022-10-16T09:23:44;5.25;;;1.58;;
45420;SDS011;55462;47.042;8.292;2022-10-16T09:26:11;3.05;;;1.38;;
45420;SDS011;55462;47.042;8.292;2022-10-16T09:28:39;7.15;;;1.77;;
45420;SDS011;55462;47.042;8.292;2022-10-16T09:31:04;3.15;;;1.90;;
45420;SDS011;55462;47.042;8.292;2022-10-16T09:33:32;1.83;;;1.70;;
45420;SDS011;55462;47.042;8.292;2022-10-16T09:35:59;4.93;;;1.70;;
45420;SDS011;55462;47.042;8.292;2022-10-16T09:38:29;3.15;;;1.60;;
45420;SDS011;55462;47.042;8.292;2022-10-16T09:40:59;1.70;;;1.60;;
45420;SDS011;55462;47.042;8.292;2022-10-16T09:43:38;2.97;;;1.45;;
45420;SDS011;55462;47.042;8.292;2022-10-16T09:46:06;3.80;;;1.90;;
45420;SDS011;55462;47.042;8.292;2022-10-16T09:48:54;2.55;;;1.95;;
45420;SDS011;55462;47.042;8.292;2022-10-16T09:51:21;8.95;;;2.53;;
45420;SDS011;55462;47.042;8.292;2022-10-16T09:53:58;2.70;;;1.52;;
45420;SDS011;55462;47.042;8.292;2022-10-16T09:56:32;2.08;;;1.60;;
45420;SDS011;55462;47.042;8.292;2022-10-16T09:59:15;3.90;;;1.80;;
45420;SDS011;55462;47.042;8.292;2022-10-16T10:01:48;6.95;;;1.45;;
45420;SDS011;55462;47.042;8.292;2022-10-16T10:04:16;2.25;;;1.60;;
45420;SDS011;55462;47.042;8.292;2022-10-16T10:07:03;4.03;;;1.77;;
45420;SDS011;55462;47.042;8.292;2022-10-16T10:12:03;3.40;;;1.60;;
45420;SDS011;55462;47.042;8.292;2022-10-16T10:14:50;2.38;;;2.03;;
45420;SDS011;55462;47.042;8.292;2022-10-16T10:17:18;2.83;;;1.80;;
45420;SDS011;55462;47.042;8.292;2022-10-16T10:20:00;2.80;;;1.58;;
45420;SDS011;55462;47.042;8.292;2022-10-16T10:30:27;3.70;;;1.70;;
45420;SDS011;55462;47.042;8.292;2022-10-16T10:35:56;2.17;;;1.80;;
45420;SDS011;55462;47.042;8.292;2022-10-16T10:39:21;3.35;;;1.60;;
45420;SDS011;55462;47.042;8.292;2022-10-16T10:53:11;1.83;;;1.70;;
45420;SDS011;55462;47.042;8.292;2022-10-16T10:56:04;2.78;;;1.70;;
45420;SDS011;55462;47.042;8.292;2022-10-16T11:01:10;4.57;;;1.90;;
45420;SDS011;55462;47.042;8.292;2022-10-16T11:06:29;1.67;;;1.58;;
45420;SDS011;55462;47.042;8.292;2022-10-16T11:09:13;2.65;;;1.85;;
45420;SDS011;55462;47.042;8.292;2022-10-16T11:11:50;1.63;;;1.50;;
45420;SDS011;55462;47.042;8.292;2022-10-16T11:14:27;1.73;;;1.30;;
45420;SDS011;55462;47.042;8.292;2022-10-16T11:17:07;1.42;;;1.33;;
45420;SDS011;55462;47.042;8.292;2022-10-16T11:19:40;1.35;;;1.33;;
45420;SDS011;55462;47.042;8.292;2022-10-16T11:22:35;3.78;;;1.75;;
45420;SDS011;55462;47.042;8.292;2022-10-16T11:25:04;2.60;;;2.00;;
45420;SDS011;55462;47.042;8.292;2022-10-16T11:27:39;2.35;;;1.92;;
45420;SDS011;55462;47.042;8.292;2022-10-16T11:30:15;2.90;;;1.80;;
45420;SDS011;55462;47.042;8.292;2022-10-16T11:33:10;3.28;;;1.85;;
45420;SDS011;55462;47.042;8.292;2022-10-16T11:36:11;3.63;;;1.95;;
45420;SDS011;55462;47.042;8.292;2022-10-16T11:41:32;1.73;;;1.50;;
45420;SDS011;55462;47.042;8.292;2022-10-16T11:46:36;1.88;;;1.77;;
45420;SDS011;55462;47.042;8.292;2022-10-16T11:49:08;1.65;;;1.58;;
45420;SDS011;55462;47.042;8.292;2022-10-16T11:51:38;1.50;;;1.40;;
45420;SDS011;55462;47.042;8.292;2022-10-16T11:56:43;1.48;;;1.40;;
45420;SDS011;55462;47.042;8.292;2022-10-16T11:59:13;1.75;;;1.50;;
45420;SDS011;55462;47.042;8.292;2022-10-16T12:01:47;1.58;;;1.48;;
45420;SDS011;55462;47.042;8.292;2022-10-16T12:04:21;1.83;;;1.50;;
45420;SDS011;55462;47.042;8.292;2022-10-16T12:06:57;2.08;;;1.40;;
45420;SDS011;55462;47.042;8.292;2022-10-16T12:09:28;3.50;;;1.60;;
45420;SDS011;55462;47.042;8.292;2022-10-16T12:11:55;3.90;;;1.67;;
45420;SDS011;55462;47.042;8.292;2022-10-16T12:14:22;3.13;;;1.40;;
45420;SDS011;55462;47.042;8.292;2022-10-16T12:17:01;2.97;;;1.40;;
45420;SDS011;55462;47.042;8.292;2022-10-16T12:19:30;1.65;;;1.55;;
45420;SDS011;55462;47.042;8.292;2022-10-16T12:21:58;1.45;;;1.35;;
45420;SDS011;55462;47.042;8.292;2022-10-16T12:26:56;1.50;;;1.40;;
45420;SDS011;55462;47.042;8.292;2022-10-16T12:29:23;2.05;;;1.50;;
45420;SDS011;55462;47.042;8.292;2022-10-16T12:31:51;4.25;;;1.48;;
45420;SDS011;55462;47.042;8.292;2022-10-16T12:34:27;2.35;;;1.60;;
45420;SDS011;55462;47.042;8.292;2022-10-16T12:37:20;3.70;;;1.30;;
45420;SDS011;55462;47.042;8.292;2022-10-16T12:39:46;2.92;;;1.30;;
45420;SDS011;55462;47.042;8.292;2022-10-16T12:42:23;1.30;;;1.30;;
45420;SDS011;55462;47.042;8.292;2022-10-16T12:44:56;1.77;;;1.30;;
45420;SDS011;55462;47.042;8.292;2022-10-16T12:49:56;1.60;;;1.50;;
45420;SDS011;55462;47.042;8.292;2022-10-16T12:54:55;1.27;;;1.27;;
45420;SDS011;55462;47.042;8.292;2022-10-16T13:08:53;3.47;;;1.40;;
45420;SDS011;55462;47.042;8.292;2022-10-16T13:20:16;3.08;;;1.48;;
45420;SDS011;55462;47.042;8.292;2022-10-16T13:28:17;1.30;;;1.30;;
45420;SDS011;55462;47.042;8.292;2022-10-16T13:30:53;2.50;;;1.30;;
45420;SDS011;55462;47.042;8.292;2022-10-16T13:36:04;2.25;;;1.30;;
45420;SDS011;55462;47.042;8.292;2022-10-16T13:38:32;1.25;;;1.25;;
45420;SDS011;55462;47.042;8.292;2022-10-16T13:41:05;2.05;;;1.20;;
45420;SDS011;55462;47.042;8.292;2022-10-16T13:43:39;1.75;;;1.30;;
45420;SDS011;55462;47.042;8.292;2022-10-16T13:46:07;2.13;;;1.65;;
45420;SDS011;55462;47.042;8.292;2022-10-16T13:48:37;1.90;;;1.55;;
45420;SDS011;55462;47.042;8.292;2022-10-16T13:51:11;1.30;;;1.20;;
45420;SDS011;55462;47.042;8.292;2022-10-16T13:53:41;2.63;;;1.50;;
45420;SDS011;55462;47.042;8.292;2022-10-16T13:56:09;3.03;;;1.30;;
45420;SDS011;55462;47.042;8.292;2022-10-16T13:58:36;4.70;;;1.60;;
45420;SDS011;55462;47.042;8.292;2022-10-16T14:01:02;2.03;;;1.27;;
45420;SDS011;55462;47.042;8.292;2022-10-16T14:03:30;1.40;;;1.30;;
45420;SDS011;55462;47.042;8.292;2022-10-16T14:06:00;4.43;;;1.40;;
45420;SDS011;55462;47.042;8.292;2022-10-16T14:08:27;1.58;;;1.30;;
45420;SDS011;55462;47.042;8.292;2022-10-16T14:10:55;1.27;;;1.27;;
45420;SDS011;55462;47.042;8.292;2022-10-16T14:13:31;1.60;;;1.25;;
45420;SDS011;55462;47.042;8.292;2022-10-16T14:16:00;1.83;;;1.30;;
45420;SDS011;55462;47.042;8.292;2022-10-16T14:18:30;1.75;;;1.60;;
45420;SDS011;55462;47.042;8.292;2022-10-16T14:21:02;1.20;;;1.20;;
45420;SDS011;55462;47.042;8.292;2022-10-16T14:23:30;1.40;;;1.30;;
45420;SDS011;55462;47.042;8.292;2022-10-16T14:28:35;1.35;;;1.35;;
45420;SDS011;55462;47.042;8.292;2022-10-16T14:31:02;1.10;;;1.10;;
45420;SDS011;55462;47.042;8.292;2022-10-16T14:33:41;6.38;;;1.80;;
45420;SDS011;55462;47.042;8.292;2022-10-16T14:38:48;2.35;;;1.52;;
45420;SDS011;55462;47.042;8.292;2022-10-16T14:41:28;4.80;;;1.55;;
45420;SDS011;55462;47.042;8.292;2022-10-16T14:44:01;3.35;;;1.60;;
45420;SDS011;55462;47.042;8.292;2022-10-16T14:46:29;2.17;;;1.40;;
45420;SDS011;55462;47.042;8.292;2022-10-16T14:49:03;2.22;;;1.70;;
45420;SDS011;55462;47.042;8.292;2022-10-16T14:51:34;1.88;;;1.77;;
45420;SDS011;55462;47.042;8.292;2022-10-16T14:54:00;2.17;;;1.52;;
45420;SDS011;55462;47.042;8.292;2022-10-16T14:56:29;2.92;;;1.50;;
45420;SDS011;55462;47.042;8.292;2022-10-16T14:58:56;1.73;;;1.63;;
45420;SDS011;55462;47.042;8.292;2022-10-16T15:01:21;4.72;;;1.88;;
45420;SDS011;55462;47.042;8.292;2022-10-16T15:03:47;2.53;;;2.20;;
45420;SDS011;55462;47.042;8.292;2022-10-16T15:06:13;1.77;;;1.67;;
45420;SDS011;55462;47.042;8.292;2022-10-16T15:08:39;2.80;;;1.58;;
45420;SDS011;55462;47.042;8.292;2022-10-16T15:11:05;5.30;;;1.40;;
45420;SDS011;55462;47.042;8.292;2022-10-16T15:13:35;2.20;;;1.60;;
45420;SDS011;55462;47.042;8.292;2022-10-16T15:16:01;6.13;;;1.95;;
45420;SDS011;55462;47.042;8.292;2022-10-16T15:18:26;4.97;;;2.03;;
45420;SDS011;55462;47.042;8.292;2022-10-16T15:20:51;3.10;;;1.85;;
45420;SDS011;55462;47.042;8.292;2022-10-16T15:23:18;2.80;;;1.77;;
45420;SDS011;55462;47.042;8.292;2022-10-16T15:25:46;3.70;;;1.83;;
45420;SDS011;55462;47.042;8.292;2022-10-16T15:28:16;3.70;;;1.70;;
45420;SDS011;55462;47.042;8.292;2022-10-16T15:30:42;2.75;;;1.52;;
45420;SDS011;55462;47.042;8.292;2022-10-16T15:33:11;4.72;;;1.60;;
45420;SDS011;55462;47.042;8.292;2022-10-16T15:35:38;2.05;;;1.45;;
45420;SDS011;55462;47.042;8.292;2022-10-16T15:38:04;1.88;;;1.65;;
45420;SDS011;55462;47.042;8.292;2022-10-16T15:40:29;4.85;;;1.85;;
45420;SDS011;55462;47.042;8.292;2022-10-16T15:42:55;8.98;;;1.83;;
45420;SDS011;55462;47.042;8.292;2022-10-16T15:45:20;4.05;;;1.85;;
45420;SDS011;55462;47.042;8.292;2022-10-16T15:47:45;6.55;;;1.95;;
45420;SDS011;55462;47.042;8.292;2022-10-16T15:50:11;2.25;;;1.77;;
45420;SDS011;55462;47.042;8.292;2022-10-16T15:52:38;6.82;;;2.00;;
45420;SDS011;55462;47.042;8.292;2022-10-16T15:55:04;3.90;;;1.50;;
45420;SDS011;55462;47.042;8.292;2022-10-16T15:57:31;4.15;;;1.80;;
45420;SDS011;55462;47.042;8.292;2022-10-16T15:59:56;2.97;;;1.92;;
45420;SDS011;55462;47.042;8.292;2022-10-16T16:02:21;3.35;;;1.92;;
45420;SDS011;55462;47.042;8.292;2022-10-16T16:04:47;3.00;;;1.45;;
45420;SDS011;55462;47.042;8.292;2022-10-16T16:07:12;3.78;;;1.58;;
45420;SDS011;55462;47.042;8.292;2022-10-16T16:09:37;2.83;;;1.33;;
45420;SDS011;55462;47.042;8.292;2022-10-16T16:12:03;2.28;;;1.50;;
45420;SDS011;55462;47.042;8.292;2022-10-16T16:14:28;2.72;;;1.60;;
45420;SDS011;55462;47.042;8.292;2022-10-16T16:16:54;1.83;;;1.70;;
45420;SDS011;55462;47.042;8.292;2022-10-16T16:19:20;3.72;;;2.10;;
45420;SDS011;55462;47.042;8.292;2022-10-16T16:21:48;4.75;;;2.05;;
45420;SDS011;55462;47.042;8.292;2022-10-16T16:24:14;2.92;;;1.48;;
45420;SDS011;55462;47.042;8.292;2022-10-16T16:26:40;4.95;;;1.58;;
45420;SDS011;55462;47.042;8.292;2022-10-16T16:29:09;3.60;;;1.88;;
45420;SDS011;55462;47.042;8.292;2022-10-16T16:31:36;2.72;;;1.63;;
45420;SDS011;55462;47.042;8.292;2022-10-16T16:34:02;2.75;;;1.63;;
45420;SDS011;55462;47.042;8.292;2022-10-16T16:36:28;3.55;;;1.70;;
45420;SDS011;55462;47.042;8.292;2022-10-16T16:38:53;5.00;;;1.73;;
45420;SDS011;55462;47.042;8.292;2022-10-16T16:41:19;2.70;;;1.80;;
45420;SDS011;55462;47.042;8.292;2022-10-16T16:43:46;2.08;;;1.63;;
45420;SDS011;55462;47.042;8.292;2022-10-16T16:46:12;3.20;;;1.60;;